TimeEST,TemperatureF,Dew PointF,Humidity,Sea Level PressureIn,VisibilityMPH,Wind Direction,Wind SpeedMPH,Gust SpeedMPH,PrecipitationIn,Events,Conditions,WindDirDegrees,DateUTC
12:54 AM,19.0,1.0,46,30.30,10.0,West,4.6,-,N/A,,Clear,260,2013-02-07 05:54:00
1:54 AM,19.0,1.0,46,30.32,10.0,WNW,5.8,-,N/A,,Clear,300,2013-02-07 06:54:00
2:54 AM,17.1,1.9,52,30.34,10.0,West,6.9,-,N/A,,Clear,260,2013-02-07 07:54:00
3:54 AM,16.0,3.0,57,30.37,10.0,West,6.9,-,N/A,,Clear,260,2013-02-07 08:54:00
4:54 AM,15.1,3.0,59,30.38,10.0,WNW,5.8,-,N/A,,Clear,290,2013-02-07 09:54:00
5:54 AM,14.0,3.0,62,30.39,10.0,WNW,5.8,-,N/A,,Clear,290,2013-02-07 10:54:00
6:54 AM,12.9,3.0,65,30.43,10.0,West,4.6,-,N/A,,Clear,270,2013-02-07 11:54:00
7:54 AM,17.1,3.9,56,30.47,10.0,NW,3.5,-,N/A,,Clear,310,2013-02-07 12:54:00
8:54 AM,19.0,1.0,46,30.48,10.0,NW,5.8,-,N/A,,Clear,320,2013-02-07 13:54:00
9:54 AM,21.9,-0.0,38,30.50,10.0,NNW,6.9,-,N/A,,Partly Cloudy,340,2013-02-07 14:54:00
10:54 AM,21.9,-0.0,38,30.51,10.0,North,9.2,-,N/A,,Mostly Cloudy,350,2013-02-07 15:54:00
11:54 AM,25.0,-0.9,33,30.49,10.0,NNW,11.5,-,N/A,,Scattered Clouds,330,2013-02-07 16:54:00
12:54 PM,27.0,-0.0,31,30.46,10.0,North,9.2,-,N/A,,Clear,350,2013-02-07 17:54:00
1:54 PM,27.0,-0.0,31,30.45,10.0,North,6.9,-,N/A,,Overcast,350,2013-02-07 18:54:00
2:54 PM,28.0,-0.0,30,30.45,10.0,Calm,Calm,-,N/A,,Partly Cloudy,0,2013-02-07 19:54:00
3:54 PM,28.0,-0.0,30,30.45,10.0,ESE,3.5,-,N/A,,Clear,110,2013-02-07 20:54:00
4:54 PM,26.1,-0.0,32,30.45,10.0,East,4.6,-,N/A,,Partly Cloudy,100,2013-02-07 21:54:00
5:54 PM,26.1,-0.0,32,30.46,10.0,ESE,4.6,-,N/A,,Mostly Cloudy,120,2013-02-07 22:54:00
6:54 PM,25.0,1.0,36,30.48,10.0,East,4.6,-,N/A,,Mostly Cloudy,100,2013-02-07 23:54:00
7:54 PM,24.1,-0.0,35,30.47,10.0,East,9.2,-,N/A,,Overcast,80,2013-02-08 00:54:00
8:54 PM,23.0,-0.9,35,30.48,10.0,East,9.2,-,N/A,,Overcast,100,2013-02-08 01:54:00
9:54 PM,23.0,1.0,39,30.47,10.0,East,8.1,-,N/A,,Overcast,100,2013-02-08 02:54:00
10:54 PM,21.9,1.9,42,30.47,10.0,ESE,6.9,-,N/A,,Overcast,110,2013-02-08 03:54:00
11:54 PM,21.9,3.0,44,30.46,10.0,ESE,4.6,-,N/A,,Overcast,120,2013-02-08 04:54:00